sensor_id;sensor_type;location;lat;lon;timestamp;P1;durP1;ratioP1;P2;durP2;ratioP2
30020;SDS011;16861;52.294;7.760;2023-02-03T00:00:38;24.27;;;14.73;;
30020;SDS011;16861;52.294;7.760;2023-02-03T00:03:07;22.73;;;13.48;;
30020;SDS011;16861;52.294;7.760;2023-02-03T00:05:37;21.20;;;14.05;;
30020;SDS011;16861;52.294;7.760;2023-02-03T00:08:04;20.55;;;13.32;;
30020;SDS011;16861;52.294;7.760;2023-02-03T00:10:34;20.80;;;13.70;;
30020;SDS011;16861;52.294;7.760;2023-02-03T00:13:02;22.85;;;13.95;;
30020;SDS011;16861;52.294;7.760;2023-02-03T00:15:28;26.23;;;14.02;;
30020;SDS011;16861;52.294;7.760;2023-02-03T00:17:55;24.25;;;13.68;;
30020;SDS011;16861;52.294;7.760;2023-02-03T00:20:21;20.88;;;12.98;;
30020;SDS011;16861;52.294;7.760;2023-02-03T00:22:51;24.20;;;13.77;;
30020;SDS011;16861;52.294;7.760;2023-02-03T00:25:20;26.23;;;12.60;;
30020;SDS011;16861;52.294;7.760;2023-02-03T00:27:48;22.35;;;13.15;;
30020;SDS011;16861;52.294;7.760;2023-02-03T00:30:23;20.55;;;13.10;;
30020;SDS011;16861;52.294;7.760;2023-02-03T00:32:54;20.67;;;13.25;;
30020;SDS011;16861;52.294;7.760;2023-02-03T00:35:23;22.60;;;12.57;;
30020;SDS011;16861;52.294;7.760;2023-02-03T00:37:53;20.02;;;12.15;;
30020;SDS011;16861;52.294;7.760;2023-02-03T00:40:21;23.27;;;13.30;;
30020;SDS011;16861;52.294;7.760;2023-02-03T00:42:51;23.15;;;13.63;;
30020;SDS011;16861;52.294;7.760;2023-02-03T00:45:17;18.13;;;12.18;;
30020;SDS011;16861;52.294;7.760;2023-02-03T00:47:46;19.65;;;11.45;;
30020;SDS011;16861;52.294;7.760;2023-02-03T00:50:13;21.67;;;12.40;;
30020;SDS011;16861;52.294;7.760;2023-02-03T00:52:40;17.70;;;10.88;;
30020;SDS011;16861;52.294;7.760;2023-02-03T00:55:12;17.33;;;11.02;;
30020;SDS011;16861;52.294;7.760;2023-02-03T00:57:39;20.05;;;11.43;;
30020;SDS011;16861;52.294;7.760;2023-02-03T01:00:06;17.92;;;11.02;;
30020;SDS011;16861;52.294;7.760;2023-02-03T01:02:33;23.98;;;11.57;;
30020;SDS011;16861;52.294;7.760;2023-02-03T01:05:00;22.83;;;11.38;;
30020;SDS011;16861;52.294;7.760;2023-02-03T01:07:29;20.88;;;10.48;;
30020;SDS011;16861;52.294;7.760;2023-02-03T01:09:57;16.17;;;9.85;;
30020;SDS011;16861;52.294;7.760;2023-02-03T01:12:23;19.23;;;10.70;;
30020;SDS011;16861;52.294;7.760;2023-02-03T01:14:50;16.67;;;10.38;;
30020;SDS011;16861;52.294;7.760;2023-02-03T01:17:16;20.25;;;10.80;;
30020;SDS011;16861;52.294;7.760;2023-02-03T01:19:43;19.95;;;9.73;;
30020;SDS011;16861;52.294;7.760;2023-02-03T01:22:13;23.15;;;9.52;;
30020;SDS011;16861;52.294;7.760;2023-02-03T01:24:39;18.48;;;9.38;;
30020;SDS011;16861;52.294;7.760;2023-02-03T01:27:06;21.05;;;10.07;;
30020;SDS011;16861;52.294;7.760;2023-02-03T01:29:32;14.10;;;8.65;;
30020;SDS011;16861;52.294;7.760;2023-02-03T01:32:02;18.17;;;8.90;;
30020;SDS011;16861;52.294;7.760;2023-02-03T01:34:28;14.52;;;8.10;;
30020;SDS011;16861;52.294;7.760;2023-02-03T01:36:55;16.08;;;9.15;;
30020;SDS011;16861;52.294;7.760;2023-02-03T01:39:22;17.60;;;9.60;;
30020;SDS011;16861;52.294;7.760;2023-02-03T01:41:48;17.80;;;9.05;;
30020;SDS011;16861;52.294;7.760;2023-02-03T01:52:38;19.33;;;9.77;;
30020;SDS011;16861;52.294;7.760;2023-02-03T01:55:08;19.08;;;10.18;;
30020;SDS011;16861;52.294;7.760;2023-02-03T01:57:59;21.42;;;10.35;;
30020;SDS011;16861;52.294;7.760;2023-02-03T02:00:28;17.00;;;10.52;;
30020;SDS011;16861;52.294;7.760;2023-02-03T02:02:56;18.95;;;9.50;;
30020;SDS011;16861;52.294;7.760;2023-02-03T02:05:37;15.30;;;9.35;;
30020;SDS011;16861;52.294;7.760;2023-02-03T02:08:25;14.35;;;9.38;;
30020;SDS011;16861;52.294;7.760;2023-02-03T02:10:52;17.08;;;9.00;;
30020;SDS011;16861;52.294;7.760;2023-02-03T02:13:19;16.83;;;9.60;;
30020;SDS011;16861;52.294;7.760;2023-02-03T02:15:57;12.90;;;9.43;;
30020;SDS011;16861;52.294;7.760;2023-02-03T02:21:39;19.80;;;10.27;;
30020;SDS011;16861;52.294;7.760;2023-02-03T02:27:20;21.08;;;9.57;;
30020;SDS011;16861;52.294;7.760;2023-02-03T02:30:05;22.77;;;9.85;;
30020;SDS011;16861;52.294;7.760;2023-02-03T02:33:03;15.75;;;8.63;;
30020;SDS011;16861;52.294;7.760;2023-02-03T02:38:17;14.98;;;8.73;;
30020;SDS011;16861;52.294;7.760;2023-02-03T02:43:43;17.75;;;8.73;;
30020;SDS011;16861;52.294;7.760;2023-02-03T02:46:24;15.95;;;8.27;;
30020;SDS011;16861;52.294;7.760;2023-02-03T02:49:06;21.10;;;8.25;;
30020;SDS011;16861;52.294;7.760;2023-02-03T02:51:39;17.48;;;8.52;;
30020;SDS011;16861;52.294;7.760;2023-02-03T02:54:11;15.52;;;8.80;;
30020;SDS011;16861;52.294;7.760;2023-02-03T02:56:48;16.10;;;8.60;;
30020;SDS011;16861;52.294;7.760;2023-02-03T02:59:21;16.05;;;8.02;;
30020;SDS011;16861;52.294;7.760;2023-02-03T03:01:50;18.23;;;8.13;;
30020;SDS011;16861;52.294;7.760;2023-02-03T03:04:23;15.57;;;8.43;;
30020;SDS011;16861;52.294;7.760;2023-02-03T03:07:01;15.32;;;8.38;;
30020;SDS011;16861;52.294;7.760;2023-02-03T03:09:32;16.95;;;8.68;;
30020;SDS011;16861;52.294;7.760;2023-02-03T03:12:08;14.60;;;8.35;;
30020;SDS011;16861;52.294;7.760;2023-02-03T03:14:44;20.75;;;8.95;;
30020;SDS011;16861;52.294;7.760;2023-02-03T03:17:23;15.07;;;7.85;;
30020;SDS011;16861;52.294;7.760;2023-02-03T03:19:59;16.70;;;8.15;;
30020;SDS011;16861;52.294;7.760;2023-02-03T03:23:06;14.93;;;8.10;;
30020;SDS011;16861;52.294;7.760;2023-02-03T03:25:43;17.05;;;7.75;;
30020;SDS011;16861;52.294;7.760;2023-02-03T03:28:20;18.38;;;7.43;;
30020;SDS011;16861;52.294;7.760;2023-02-03T03:30:51;15.70;;;7.15;;
30020;SDS011;16861;52.294;7.760;2023-02-03T03:33:19;20.40;;;8.23;;
30020;SDS011;16861;52.294;7.760;2023-02-03T03:38:40;14.77;;;7.38;;
30020;SDS011;16861;52.294;7.760;2023-02-03T03:41:14;18.67;;;7.68;;
30020;SDS011;16861;52.294;7.760;2023-02-03T03:46:44;13.98;;;6.90;;
30020;SDS011;16861;52.294;7.760;2023-02-03T03:49:16;14.70;;;6.18;;
30020;SDS011;16861;52.294;7.760;2023-02-03T03:51:50;12.38;;;6.05;;
30020;SDS011;16861;52.294;7.760;2023-02-03T03:54:24;16.90;;;6.40;;
30020;SDS011;16861;52.294;7.760;2023-02-03T03:59:29;12.63;;;6.15;;
30020;SDS011;16861;52.294;7.760;2023-02-03T04:02:08;9.88;;;5.63;;
30020;SDS011;16861;52.294;7.760;2023-02-03T04:04:37;12.55;;;6.00;;
30020;SDS011;16861;52.294;7.760;2023-02-03T04:07:04;12.00;;;5.18;;
30020;SDS011;16861;52.294;7.760;2023-02-03T04:09:31;13.38;;;5.15;;
30020;SDS011;16861;52.294;7.760;2023-02-03T04:12:02;17.40;;;4.93;;
30020;SDS011;16861;52.294;7.760;2023-02-03T04:14:32;12.85;;;4.95;;
30020;SDS011;16861;52.294;7.760;2023-02-03T04:17:03;10.18;;;5.25;;
30020;SDS011;16861;52.294;7.760;2023-02-03T04:19:29;13.68;;;5.07;;
30020;SDS011;16861;52.294;7.760;2023-02-03T04:21:56;10.43;;;4.93;;
30020;SDS011;16861;52.294;7.760;2023-02-03T04:24:22;10.98;;;5.13;;
30020;SDS011;16861;52.294;7.760;2023-02-03T04:26:49;14.80;;;5.10;;
30020;SDS011;16861;52.294;7.760;2023-02-03T04:29:15;14.15;;;5.20;;
30020;SDS011;16861;52.294;7.760;2023-02-03T04:31:44;10.85;;;4.95;;
30020;SDS011;16861;52.294;7.760;2023-02-03T04:34:11;13.65;;;4.50;;
30020;SDS011;16861;52.294;7.760;2023-02-03T04:36:37;11.82;;;4.78;;
30020;SDS011;16861;52.294;7.760;2023-02-03T04:39:04;11.57;;;4.95;;
30020;SDS011;16861;52.294;7.760;2023-02-03T04:41:30;9.88;;;4.00;;
30020;SDS011;16861;52.294;7.760;2023-02-03T04:43:57;12.77;;;4.65;;
30020;SDS011;16861;52.294;7.760;2023-02-03T04:46:24;12.32;;;4.32;;
30020;SDS011;16861;52.294;7.760;2023-02-03T04:48:50;15.15;;;4.70;;
30020;SDS011;16861;52.294;7.760;2023-02-03T04:51:17;10.38;;;4.32;;
30020;SDS011;16861;52.294;7.760;2023-02-03T04:53:45;11.75;;;4.30;;
30020;SDS011;16861;52.294;7.760;2023-02-03T04:58:41;12.05;;;3.85;;
30020;SDS011;16861;52.294;7.760;2023-02-03T05:01:07;15.90;;;4.32;;
30020;SDS011;16861;52.294;7.760;2023-02-03T05:03:34;11.00;;;3.50;;
30020;SDS011;16861;52.294;7.760;2023-02-03T05:06:01;9.80;;;3.17;;
30020;SDS011;16861;52.294;7.760;2023-02-03T05:08:28;12.07;;;3.63;;
30020;SDS011;16861;52.294;7.760;2023-02-03T05:10:56;16.92;;;4.30;;
30020;SDS011;16861;52.294;7.760;2023-02-03T05:13:25;12.70;;;4.05;;
30020;SDS011;16861;52.294;7.760;2023-02-03T05:15:52;15.55;;;4.50;;
30020;SDS011;16861;52.294;7.760;2023-02-03T05:18:18;10.32;;;3.22;;
30020;SDS011;16861;52.294;7.760;2023-02-03T05:20:45;9.40;;;3.75;;
30020;SDS011;16861;52.294;7.760;2023-02-03T05:23:11;10.75;;;3.85;;
30020;SDS011;16861;52.294;7.760;2023-02-03T05:25:38;14.45;;;3.90;;
30020;SDS011;16861;52.294;7.760;2023-02-03T05:28:04;12.82;;;4.32;;
30020;SDS011;16861;52.294;7.760;2023-02-03T05:30:31;12.50;;;4.82;;
30020;SDS011;16861;52.294;7.760;2023-02-03T05:32:58;9.98;;;4.40;;
30020;SDS011;16861;52.294;7.760;2023-02-03T05:35:24;11.25;;;4.30;;
30020;SDS011;16861;52.294;7.760;2023-02-03T05:37:51;8.77;;;4.20;;
30020;SDS011;16861;52.294;7.760;2023-02-03T05:40:17;10.45;;;4.57;;
30020;SDS011;16861;52.294;7.760;2023-02-03T05:43:02;10.75;;;4.55;;
30020;SDS011;16861;52.294;7.760;2023-02-03T05:45:28;10.38;;;4.82;;
30020;SDS011;16861;52.294;7.760;2023-02-03T05:47:55;13.10;;;4.70;;
30020;SDS011;16861;52.294;7.760;2023-02-03T05:50:22;10.93;;;5.20;;
30020;SDS011;16861;52.294;7.760;2023-02-03T05:52:48;9.23;;;4.60;;
30020;SDS011;16861;52.294;7.760;2023-02-03T05:55:15;9.55;;;4.50;;
30020;SDS011;16861;52.294;7.760;2023-02-03T05:57:41;11.00;;;4.97;;
30020;SDS011;16861;52.294;7.760;2023-02-03T06:00:08;15.18;;;5.45;;
30020;SDS011;16861;52.294;7.760;2023-02-03T06:02:35;9.40;;;4.57;;
30020;SDS011;16861;52.294;7.760;2023-02-03T06:05:01;8.45;;;4.75;;
30020;SDS011;16861;52.294;7.760;2023-02-03T06:07:28;14.35;;;5.15;;
30020;SDS011;16861;52.294;7.760;2023-02-03T06:09:54;14.27;;;4.70;;
30020;SDS011;16861;52.294;7.760;2023-02-03T06:12:20;9.70;;;4.85;;
30020;SDS011;16861;52.294;7.760;2023-02-03T06:14:47;11.95;;;4.40;;
30020;SDS011;16861;52.294;7.760;2023-02-03T06:17:13;15.57;;;5.13;;
30020;SDS011;16861;52.294;7.760;2023-02-03T06:19:40;10.68;;;4.90;;
30020;SDS011;16861;52.294;7.760;2023-02-03T06:22:06;10.50;;;5.20;;
30020;SDS011;16861;52.294;7.760;2023-02-03T06:24:32;13.00;;;5.20;;
30020;SDS011;16861;52.294;7.760;2023-02-03T06:26:59;15.52;;;4.90;;
30020;SDS011;16861;52.294;7.760;2023-02-03T06:29:25;10.13;;;4.70;;
30020;SDS011;16861;52.294;7.760;2023-02-03T06:31:52;9.45;;;4.65;;
30020;SDS011;16861;52.294;7.760;2023-02-03T06:34:18;9.57;;;4.28;;
30020;SDS011;16861;52.294;7.760;2023-02-03T06:36:45;12.38;;;5.00;;
30020;SDS011;16861;52.294;7.760;2023-02-03T06:39:12;10.52;;;4.65;;
30020;SDS011;16861;52.294;7.760;2023-02-03T06:41:38;7.07;;;4.40;;
30020;SDS011;16861;52.294;7.760;2023-02-03T06:44:05;15.18;;;5.13;;
30020;SDS011;16861;52.294;7.760;2023-02-03T06:46:31;9.55;;;4.70;;
30020;SDS011;16861;52.294;7.760;2023-02-03T06:48:58;9.30;;;3.95;;
30020;SDS011;16861;52.294;7.760;2023-02-03T06:51:25;8.27;;;4.00;;
30020;SDS011;16861;52.294;7.760;2023-02-03T06:53:51;8.90;;;4.60;;
30020;SDS011;16861;52.294;7.760;2023-02-03T06:56:18;7.32;;;3.88;;
30020;SDS011;16861;52.294;7.760;2023-02-03T06:58:44;9.98;;;4.22;;
30020;SDS011;16861;52.294;7.760;2023-02-03T07:01:11;8.80;;;4.15;;
30020;SDS011;16861;52.294;7.760;2023-02-03T07:03:37;13.15;;;4.07;;
30020;SDS011;16861;52.294;7.760;2023-02-03T07:06:04;10.88;;;4.22;;
30020;SDS011;16861;52.294;7.760;2023-02-03T07:08:30;9.07;;;3.65;;
30020;SDS011;16861;52.294;7.760;2023-02-03T07:10:57;8.13;;;3.75;;
30020;SDS011;16861;52.294;7.760;2023-02-03T07:13:23;8.80;;;3.30;;
30020;SDS011;16861;52.294;7.760;2023-02-03T07:15:49;9.82;;;3.67;;
30020;SDS011;16861;52.294;7.760;2023-02-03T07:18:16;10.02;;;3.55;;
30020;SDS011;16861;52.294;7.760;2023-02-03T07:21:04;5.57;;;3.13;;
30020;SDS011;16861;52.294;7.760;2023-02-03T07:23:32;7.68;;;3.60;;
30020;SDS011;16861;52.294;7.760;2023-02-03T07:25:59;8.70;;;3.40;;
30020;SDS011;16861;52.294;7.760;2023-02-03T07:28:26;7.85;;;3.55;;
30020;SDS011;16861;52.294;7.760;2023-02-03T07:30:52;10.38;;;3.65;;
30020;SDS011;16861;52.294;7.760;2023-02-03T07:33:18;9.82;;;3.78;;
30020;SDS011;16861;52.294;7.760;2023-02-03T07:35:52;7.28;;;3.30;;
30020;SDS011;16861;52.294;7.760;2023-02-03T07:38:19;9.55;;;3.40;;
30020;SDS011;16861;52.294;7.760;2023-02-03T07:40:45;11.13;;;3.90;;
30020;SDS011;16861;52.294;7.760;2023-02-03T07:43:12;10.35;;;3.83;;
30020;SDS011;16861;52.294;7.760;2023-02-03T07:45:38;7.63;;;3.40;;
30020;SDS011;16861;52.294;7.760;2023-02-03T07:48:05;16.27;;;3.78;;
30020;SDS011;16861;52.294;7.760;2023-02-03T07:50:31;12.20;;;3.45;;
30020;SDS011;16861;52.294;7.760;2023-02-03T07:52:58;9.48;;;3.25;;
30020;SDS011;16861;52.294;7.760;2023-02-03T07:55:25;7.47;;;3.05;;
30020;SDS011;16861;52.294;7.760;2023-02-03T07:57:52;8.02;;;3.38;;
30020;SDS011;16861;52.294;7.760;2023-02-03T08:00:19;7.40;;;3.50;;
30020;SDS011;16861;52.294;7.760;2023-02-03T08:02:46;10.88;;;3.45;;
30020;SDS011;16861;52.294;7.760;2023-02-03T08:05:13;13.07;;;3.75;;
30020;SDS011;16861;52.294;7.760;2023-02-03T08:07:40;5.10;;;2.78;;
30020;SDS011;16861;52.294;7.760;2023-02-03T08:10:07;9.90;;;3.22;;
30020;SDS011;16861;52.294;7.760;2023-02-03T08:12:36;9.55;;;3.40;;
30020;SDS011;16861;52.294;7.760;2023-02-03T08:15:03;7.53;;;2.92;;
30020;SDS011;16861;52.294;7.760;2023-02-03T08:17:30;11.57;;;3.33;;
30020;SDS011;16861;52.294;7.760;2023-02-03T08:19:56;12.45;;;3.67;;
30020;SDS011;16861;52.294;7.760;2023-02-03T08:22:22;7.80;;;3.13;;
30020;SDS011;16861;52.294;7.760;2023-02-03T08:24:49;10.50;;;3.63;;
30020;SDS011;16861;52.294;7.760;2023-02-03T08:27:16;15.70;;;3.20;;
30020;SDS011;16861;52.294;7.760;2023-02-03T08:29:44;8.65;;;2.90;;
30020;SDS011;16861;52.294;7.760;2023-02-03T08:32:12;9.55;;;3.10;;
30020;SDS011;16861;52.294;7.760;2023-02-03T08:34:40;11.10;;;3.15;;
30020;SDS011;16861;52.294;7.760;2023-02-03T08:37:06;9.70;;;3.13;;
30020;SDS011;16861;52.294;7.760;2023-02-03T08:39:33;9.95;;;3.33;;
30020;SDS011;16861;52.294;7.760;2023-02-03T08:42:00;9.30;;;3.55;;
30020;SDS011;16861;52.294;7.760;2023-02-03T08:44:29;13.00;;;3.45;;
30020;SDS011;16861;52.294;7.760;2023-02-03T08:46:56;10.02;;;2.80;;
30020;SDS011;16861;52.294;7.760;2023-02-03T08:49:24;10.57;;;3.35;;
30020;SDS011;16861;52.294;7.760;2023-02-03T08:51:52;9.18;;;3.15;;
30020;SDS011;16861;52.294;7.760;2023-02-03T08:54:19;10.48;;;3.05;;
30020;SDS011;16861;52.294;7.760;2023-02-03T08:56:47;10.57;;;2.78;;
30020;SDS011;16861;52.294;7.760;2023-02-03T08:59:13;12.38;;;3.50;;
30020;SDS011;16861;52.294;7.760;2023-02-03T09:01:40;8.93;;;3.58;;
30020;SDS011;16861;52.294;7.760;2023-02-03T09:04:10;8.75;;;3.08;;
30020;SDS011;16861;52.294;7.760;2023-02-03T09:06:38;9.05;;;3.17;;
30020;SDS011;16861;52.294;7.760;2023-02-03T09:09:04;9.63;;;3.08;;
30020;SDS011;16861;52.294;7.760;2023-02-03T09:11:31;5.82;;;2.90;;
30020;SDS011;16861;52.294;7.760;2023-02-03T09:13:57;12.43;;;3.65;;
30020;SDS011;16861;52.294;7.760;2023-02-03T09:16:24;9.05;;;2.90;;
30020;SDS011;16861;52.294;7.760;2023-02-03T09:18:50;6.13;;;2.78;;
30020;SDS011;16861;52.294;7.760;2023-02-03T09:21:17;7.75;;;2.78;;
30020;SDS011;16861;52.294;7.760;2023-02-03T09:24:03;12.70;;;2.90;;
30020;SDS011;16861;52.294;7.760;2023-02-03T09:26:30;12.77;;;3.47;;
30020;SDS011;16861;52.294;7.760;2023-02-03T09:28:56;10.05;;;3.13;;
30020;SDS011;16861;52.294;7.760;2023-02-03T09:31:23;8.98;;;2.92;;
30020;SDS011;16861;52.294;7.760;2023-02-03T09:33:49;11.70;;;2.80;;
30020;SDS011;16861;52.294;7.760;2023-02-03T09:36:16;9.05;;;3.00;;
30020;SDS011;16861;52.294;7.760;2023-02-03T09:38:42;12.65;;;3.20;;
30020;SDS011;16861;52.294;7.760;2023-02-03T09:43:55;10.60;;;3.10;;
30020;SDS011;16861;52.294;7.760;2023-02-03T09:46:34;9.93;;;2.70;;
30020;SDS011;16861;52.294;7.760;2023-02-03T09:49:06;8.82;;;3.20;;
30020;SDS011;16861;52.294;7.760;2023-02-03T09:51:43;11.68;;;2.60;;
30020;SDS011;16861;52.294;7.760;2023-02-03T09:57:21;9.98;;;2.60;;
30020;SDS011;16861;52.294;7.760;2023-02-03T09:59:50;7.78;;;3.20;;
30020;SDS011;16861;52.294;7.760;2023-02-03T10:05:00;10.80;;;2.92;;
30020;SDS011;16861;52.294;7.760;2023-02-03T10:07:49;12.68;;;2.90;;
30020;SDS011;16861;52.294;7.760;2023-02-03T10:10:25;9.13;;;2.58;;
30020;SDS011;16861;52.294;7.760;2023-02-03T10:16:09;5.20;;;2.25;;
30020;SDS011;16861;52.294;7.760;2023-02-03T10:18:47;11.25;;;3.00;;
30020;SDS011;16861;52.294;7.760;2023-02-03T10:21:20;10.55;;;3.95;;
30020;SDS011;16861;52.294;7.760;2023-02-03T10:24:01;15.43;;;2.97;;
30020;SDS011;16861;52.294;7.760;2023-02-03T10:26:31;7.55;;;2.88;;
30020;SDS011;16861;52.294;7.760;2023-02-03T10:29:05;10.82;;;2.67;;
30020;SDS011;16861;52.294;7.760;2023-02-03T10:34:09;10.40;;;2.50;;
30020;SDS011;16861;52.294;7.760;2023-02-03T10:39:26;9.00;;;2.60;;
30020;SDS011;16861;52.294;7.760;2023-02-03T10:42:10;6.78;;;2.33;;
30020;SDS011;16861;52.294;7.760;2023-02-03T10:44:39;12.38;;;2.78;;
30020;SDS011;16861;52.294;7.760;2023-02-03T10:49:52;12.30;;;3.10;;
30020;SDS011;16861;52.294;7.760;2023-02-03T10:52:28;9.55;;;2.55;;
30020;SDS011;16861;52.294;7.760;2023-02-03T10:54:57;9.52;;;2.60;;
30020;SDS011;16861;52.294;7.760;2023-02-03T11:00:07;13.85;;;3.13;;
30020;SDS011;16861;52.294;7.760;2023-02-03T11:02:56;12.07;;;3.20;;
30020;SDS011;16861;52.294;7.760;2023-02-03T11:05:28;13.77;;;2.83;;
30020;SDS011;16861;52.294;7.760;2023-02-03T11:07:55;11.20;;;2.90;;
30020;SDS011;16861;52.294;7.760;2023-02-03T11:10:37;14.15;;;3.25;;
30020;SDS011;16861;52.294;7.760;2023-02-03T11:16:10;17.13;;;3.40;;
30020;SDS011;16861;52.294;7.760;2023-02-03T11:24:21;15.80;;;3.60;;
30020;SDS011;16861;52.294;7.760;2023-02-03T11:29:34;12.80;;;2.97;;
30020;SDS011;16861;52.294;7.760;2023-02-03T11:32:26;14.38;;;3.10;;
30020;SDS011;16861;52.294;7.760;2023-02-03T11:35:00;13.10;;;3.13;;
30020;SDS011;16861;52.294;7.760;2023-02-03T11:37:37;12.27;;;3.55;;
30020;SDS011;16861;52.294;7.760;2023-02-03T11:42:39;14.43;;;3.20;;
30020;SDS011;16861;52.294;7.760;2023-02-03T11:45:24;14.43;;;3.53;;
30020;SDS011;16861;52.294;7.760;2023-02-03T11:48:06;16.85;;;3.45;;
30020;SDS011;16861;52.294;7.760;2023-02-03T11:50:40;15.85;;;3.17;;
30020;SDS011;16861;52.294;7.760;2023-02-03T11:56:07;16.98;;;3.70;;
30020;SDS011;16861;52.294;7.760;2023-02-03T12:13:22;23.15;;;4.47;;
30020;SDS011;16861;52.294;7.760;2023-02-03T12:24:03;28.70;;;4.47;;
30020;SDS011;16861;52.294;7.760;2023-02-03T12:26:42;24.92;;;5.60;;
30020;SDS011;16861;52.294;7.760;2023-02-03T12:29:21;28.33;;;5.13;;
30020;SDS011;16861;52.294;7.760;2023-02-03T12:32:16;26.65;;;4.75;;
30020;SDS011;16861;52.294;7.760;2023-02-03T12:40:39;25.27;;;4.22;;
30020;SDS011;16861;52.294;7.760;2023-02-03T12:45:59;29.33;;;5.47;;
30020;SDS011;16861;52.294;7.760;2023-02-03T12:48:33;27.45;;;4.57;;
30020;SDS011;16861;52.294;7.760;2023-02-03T12:51:13;25.52;;;4.68;;
30020;SDS011;16861;52.294;7.760;2023-02-03T12:53:50;19.58;;;4.57;;
30020;SDS011;16861;52.294;7.760;2023-02-03T12:56:28;25.10;;;4.35;;
30020;SDS011;16861;52.294;7.760;2023-02-03T12:59:01;23.98;;;4.80;;
30020;SDS011;16861;52.294;7.760;2023-02-03T13:02:16;23.30;;;4.50;;
30020;SDS011;16861;52.294;7.760;2023-02-03T13:09:44;21.05;;;4.30;;
30020;SDS011;16861;52.294;7.760;2023-02-03T13:18:03;15.38;;;3.78;;
30020;SDS011;16861;52.294;7.760;2023-02-03T13:20:40;21.45;;;4.03;;
30020;SDS011;16861;52.294;7.760;2023-02-03T13:23:10;24.88;;;4.68;;
30020;SDS011;16861;52.294;7.760;2023-02-03T13:25:48;17.93;;;3.90;;
30020;SDS011;16861;52.294;7.760;2023-02-03T13:34:32;20.77;;;4.03;;
30020;SDS011;16861;52.294;7.760;2023-02-03T13:42:44;20.70;;;4.65;;
30020;SDS011;16861;52.294;7.760;2023-02-03T13:45:32;33.03;;;5.13;;
30020;SDS011;16861;52.294;7.760;2023-02-03T13:48:09;26.77;;;4.53;;
30020;SDS011;16861;52.294;7.760;2023-02-03T13:50:50;24.55;;;4.28;;
30020;SDS011;16861;52.294;7.760;2023-02-03T13:53:28;26.90;;;4.88;;
30020;SDS011;16861;52.294;7.760;2023-02-03T13:56:01;23.48;;;4.28;;
30020;SDS011;16861;52.294;7.760;2023-02-03T13:58:33;25.77;;;4.72;;
30020;SDS011;16861;52.294;7.760;2023-02-03T14:01:06;23.58;;;4.28;;
30020;SDS011;16861;52.294;7.760;2023-02-03T14:03:52;21.05;;;3.85;;
30020;SDS011;16861;52.294;7.760;2023-02-03T14:11:49;23.10;;;4.35;;
30020;SDS011;16861;52.294;7.760;2023-02-03T14:16:46;23.10;;;4.60;;
30020;SDS011;16861;52.294;7.760;2023-02-03T14:24:45;22.05;;;4.20;;
30020;SDS011;16861;52.294;7.760;2023-02-03T14:27:18;31.55;;;4.32;;
30020;SDS011;16861;52.294;7.760;2023-02-03T14:32:56;20.90;;;4.00;;
30020;SDS011;16861;52.294;7.760;2023-02-03T14:35:31;20.25;;;4.05;;
30020;SDS011;16861;52.294;7.760;2023-02-03T14:38:00;24.95;;;4.95;;
30020;SDS011;16861;52.294;7.760;2023-02-03T14:51:32;17.60;;;3.90;;
30020;SDS011;16861;52.294;7.760;2023-02-03T14:57:33;26.63;;;4.22;;
30020;SDS011;16861;52.294;7.760;2023-02-03T15:00:07;25.95;;;4.32;;
30020;SDS011;16861;52.294;7.760;2023-02-03T15:07:52;20.58;;;4.97;;
30020;SDS011;16861;52.294;7.760;2023-02-03T15:12:46;29.25;;;5.35;;
30020;SDS011;16861;52.294;7.760;2023-02-03T15:15:18;26.52;;;4.03;;
30020;SDS011;16861;52.294;7.760;2023-02-03T15:17:58;24.85;;;4.65;;
30020;SDS011;16861;52.294;7.760;2023-02-03T15:20:33;24.85;;;4.40;;
30020;SDS011;16861;52.294;7.760;2023-02-03T15:23:16;19.17;;;4.38;;
30020;SDS011;16861;52.294;7.760;2023-02-03T15:25:45;24.63;;;4.70;;
30020;SDS011;16861;52.294;7.760;2023-02-03T15:28:19;20.98;;;4.72;;
30020;SDS011;16861;52.294;7.760;2023-02-03T15:30:48;20.95;;;4.57;;
30020;SDS011;16861;52.294;7.760;2023-02-03T15:33:23;25.70;;;4.43;;
30020;SDS011;16861;52.294;7.760;2023-02-03T15:35:52;20.58;;;4.57;;
30020;SDS011;16861;52.294;7.760;2023-02-03T15:38:41;22.60;;;4.55;;
30020;SDS011;16861;52.294;7.760;2023-02-03T15:41:21;28.95;;;4.57;;
30020;SDS011;16861;52.294;7.760;2023-02-03T15:43:53;24.50;;;4.57;;
30020;SDS011;16861;52.294;7.760;2023-02-03T15:49:07;26.85;;;5.28;;
30020;SDS011;16861;52.294;7.760;2023-02-03T15:51:51;26.30;;;5.13;;
30020;SDS011;16861;52.294;7.760;2023-02-03T15:54:29;27.73;;;5.10;;
30020;SDS011;16861;52.294;7.760;2023-02-03T15:57:06;30.60;;;5.20;;
30020;SDS011;16861;52.294;7.760;2023-02-03T15:59:37;21.05;;;4.05;;
30020;SDS011;16861;52.294;7.760;2023-02-03T16:02:13;28.67;;;5.15;;
30020;SDS011;16861;52.294;7.760;2023-02-03T16:04:44;27.67;;;5.30;;
30020;SDS011;16861;52.294;7.760;2023-02-03T16:07:18;30.50;;;4.78;;
30020;SDS011;16861;52.294;7.760;2023-02-03T16:09:51;25.35;;;5.50;;
30020;SDS011;16861;52.294;7.760;2023-02-03T16:12:22;24.30;;;4.45;;
30020;SDS011;16861;52.294;7.760;2023-02-03T16:14:50;27.08;;;5.15;;
30020;SDS011;16861;52.294;7.760;2023-02-03T16:20:18;25.65;;;4.45;;
30020;SDS011;16861;52.294;7.760;2023-02-03T16:23:01;26.50;;;5.20;;
30020;SDS011;16861;52.294;7.760;2023-02-03T16:25:33;23.23;;;4.30;;
30020;SDS011;16861;52.294;7.760;2023-02-03T16:28:10;30.98;;;4.57;;
30020;SDS011;16861;52.294;7.760;2023-02-03T16:31:21;19.67;;;4.07;;
30020;SDS011;16861;52.294;7.760;2023-02-03T16:34:13;24.83;;;4.40;;
30020;SDS011;16861;52.294;7.760;2023-02-03T16:36:58;23.75;;;4.55;;
30020;SDS011;16861;52.294;7.760;2023-02-03T16:39:43;24.73;;;3.95;;
30020;SDS011;16861;52.294;7.760;2023-02-03T16:42:38;26.35;;;4.68;;
30020;SDS011;16861;52.294;7.760;2023-02-03T16:45:24;25.13;;;4.53;;
30020;SDS011;16861;52.294;7.760;2023-02-03T16:48:09;20.98;;;4.60;;
30020;SDS011;16861;52.294;7.760;2023-02-03T16:50:55;24.63;;;4.03;;
30020;SDS011;16861;52.294;7.760;2023-02-03T16:53:28;21.23;;;4.53;;
30020;SDS011;16861;52.294;7.760;2023-02-03T16:55:56;23.63;;;4.75;;
30020;SDS011;16861;52.294;7.760;2023-02-03T16:58:25;22.25;;;4.05;;
30020;SDS011;16861;52.294;7.760;2023-02-03T17:00:52;19.30;;;4.03;;
30020;SDS011;16861;52.294;7.760;2023-02-03T17:03:23;26.15;;;4.85;;
30020;SDS011;16861;52.294;7.760;2023-02-03T17:05:50;22.10;;;4.95;;
30020;SDS011;16861;52.294;7.760;2023-02-03T17:08:18;29.52;;;5.05;;
30020;SDS011;16861;52.294;7.760;2023-02-03T17:10:47;26.10;;;4.45;;
30020;SDS011;16861;52.294;7.760;2023-02-03T17:13:15;22.38;;;4.30;;
30020;SDS011;16861;52.294;7.760;2023-02-03T17:15:43;19.48;;;4.30;;
30020;SDS011;16861;52.294;7.760;2023-02-03T17:18:12;15.75;;;3.35;;
30020;SDS011;16861;52.294;7.760;2023-02-03T17:20:42;26.50;;;4.55;;
30020;SDS011;16861;52.294;7.760;2023-02-03T17:23:10;35.70;;;5.50;;
30020;SDS011;16861;52.294;7.760;2023-02-03T17:25:38;21.67;;;3.95;;
30020;SDS011;16861;52.294;7.760;2023-02-03T17:28:05;26.80;;;4.18;;
30020;SDS011;16861;52.294;7.760;2023-02-03T17:30:33;19.67;;;4.10;;
30020;SDS011;16861;52.294;7.760;2023-02-03T17:33:01;26.25;;;4.30;;
30020;SDS011;16861;52.294;7.760;2023-02-03T17:35:28;20.95;;;4.40;;
30020;SDS011;16861;52.294;7.760;2023-02-03T17:37:55;26.35;;;4.72;;
30020;SDS011;16861;52.294;7.760;2023-02-03T17:40:21;23.35;;;4.75;;
30020;SDS011;16861;52.294;7.760;2023-02-03T17:43:06;26.95;;;4.47;;
30020;SDS011;16861;52.294;7.760;2023-02-03T17:45:49;21.70;;;3.63;;
30020;SDS011;16861;52.294;7.760;2023-02-03T17:48:33;21.95;;;3.70;;